Time;durP1;ratioP1;P1;durP2;ratioP2;P2;SDS_P1;SDS_P2;PMS_P1;PMS_P2;Temp;Humidity;BMP_temperature;BMP_pressure;BME280_temperature;BME280_humidity;BME280_pressure;Samples;Min_cycle;Max_cycle;Signal;HPM_P1;HPM_P2
2022/02/10 00:04:58;;;;;;;5.57;3.55;;;5.10;99.90;;;;;;5014214;28;20054;-87
2022/02/10 00:18:48;;;;;;;4.00;3.60;;;4.40;99.90;;;;;;5000982;28;20072;-86
2022/02/10 00:21:25;;;;;;;6.82;3.47;;;4.40;99.90;;;;;;5013044;28;20050;-87
2022/02/10 00:24:23;;;;;;;6.18;4.00;;;4.40;99.90;;;;;;5012931;28;20094;-86
2022/02/10 00:35:00;;;;;;;5.25;4.75;;;4.40;99.90;;;;;;5013635;28;20060;-86
2022/02/10 00:37:37;;;;;;;7.80;4.72;;;4.50;99.90;;;;;;5012744;28;20055;-86
2022/02/10 00:40:10;;;;;;;6.30;5.30;;;4.50;99.90;;;;;;5012538;28;20076;-86
2022/02/10 00:42:37;;;;;;;6.28;4.82;;;4.60;99.90;;;;;;4996640;28;20572;-86
2022/02/10 00:45:05;;;;;;;6.95;4.82;;;4.60;99.90;;;;;;5013440;28;20125;-86
2022/02/10 00:47:45;;;;;;;6.63;4.85;;;4.60;99.90;;;;;;5013758;28;20058;-86
2022/02/10 00:50:12;;;;;;;6.72;4.80;;;4.60;99.90;;;;;;5013661;28;20536;-87
2022/02/10 00:52:42;;;;;;;6.18;4.80;;;4.40;99.90;;;;;;5013547;28;20046;-86
2022/02/10 00:55:10;;;;;;;6.97;4.90;;;4.50;99.90;;;;;;5012652;28;20054;-86
2022/02/10 00:57:38;;;;;;;6.78;4.80;;;4.40;99.90;;;;;;5013643;28;20546;-86
2022/02/10 01:06:59;;;;;;;7.22;4.55;;;4.40;99.90;;;;;;5013485;28;20056;-87
2022/02/10 01:14:03;;;;;;;6.90;5.13;;;4.60;99.90;;;;;;5017486;28;20050;-86
2022/02/10 01:29:35;;;;;;;6.38;4.28;;;4.70;99.90;;;;;;5017146;28;20058;-86
2022/02/10 01:30:20;;;;;;;6.13;4.22;;;4.60;99.90;;;;;;5017160;28;20048;-86
2022/02/10 01:32:52;;;;;;;6.93;4.20;;;4.50;99.90;;;;;;5016059;28;20100;-86
2022/02/10 01:35:22;;;;;;;5.75;4.30;;;4.40;99.90;;;;;;5017246;28;20301;-86
2022/02/10 01:37:50;;;;;;;5.15;4.00;;;4.40;99.90;;;;;;5015749;28;20096;-86
2022/02/10 01:40:24;;;;;;;5.40;4.03;;;4.20;99.90;;;;;;5015855;28;20052;-87
2022/02/10 02:04:57;;;;;;;5.25;4.13;;;4.00;99.90;;;;;;5016283;28;20418;-86
2022/02/10 02:07:29;;;;;;;7.68;5.03;;;4.00;99.90;;;;;;5015331;28;20088;-86
2022/02/10 02:09:57;;;;;;;;;;;3.80;99.90;;;;;;5015811;28;20057;-86
2022/02/10 02:12:24;;;;;;;5.38;4.88;;;3.80;99.90;;;;;;5015379;28;19956;-86
2022/02/10 02:14:51;;;;;;;8.23;4.35;;;3.70;99.90;;;;;;5015933;28;20057;-86
2022/02/10 02:17:19;;;;;;;6.18;3.78;;;3.60;99.90;;;;;;5015047;28;20076;-86
2022/02/10 02:19:47;;;;;;;8.65;3.97;;;3.40;99.90;;;;;;5016307;28;20557;-86
2022/02/10 02:22:14;;;;;;;8.55;4.40;;;3.30;99.90;;;;;;5014966;28;20050;-86
2022/02/10 02:24:40;;;;;;;9.10;4.93;;;3.20;99.90;;;;;;5014788;28;20089;-86
2022/02/10 02:27:09;;;;;;;5.25;4.60;;;3.00;99.90;;;;;;5014681;28;20058;-86
2022/02/10 02:29:41;;;;;;;5.22;4.50;;;2.90;99.90;;;;;;5014962;28;20487;-86
2022/02/10 02:32:15;;;;;;;7.78;4.35;;;2.90;99.90;;;;;;5016182;28;20414;-87
2022/02/10 02:35:10;;;;;;;;;;;2.90;99.90;;;;;;5016389;28;20137;-87
2022/02/10 03:10:07;;;;;;;6.38;4.55;;;1.80;99.90;;;;;;5015405;28;20052;-86
2022/02/10 03:12:36;;;;;;;7.63;5.25;;;1.70;99.90;;;;;;5014161;28;20053;-87
2022/02/10 03:15:07;;;;;;;9.55;5.10;;;1.70;99.90;;;;;;5013634;28;20045;-86
2022/02/10 03:17:54;;;;;;;7.60;4.60;;;1.70;99.90;;;;;;4997909;28;20466;-87
2022/02/10 03:20:42;;;;;;;7.95;5.30;;;1.60;99.90;;;;;;5013685;28;20058;-86
2022/02/10 04:02:11;;;;;;;15.93;8.48;;;1.20;99.90;;;;;;5014007;28;20085;-86
2022/02/10 04:12:53;;;;;;;19.05;9.63;;;1.00;99.90;;;;;;5013763;28;20049;-87
2022/02/10 04:15:38;;;;;;;15.80;10.07;;;0.90;99.90;;;;;;5012538;28;20088;-87
2022/02/10 04:21:15;;;;;;;20.30;12.00;;;0.90;99.90;;;;;;5013956;28;20050;-87
2022/02/10 04:26:41;;;;;;;15.20;11.48;;;0.90;99.90;;;;;;5013685;28;20060;-86
2022/02/10 04:32:24;;;;;;;23.60;15.00;;;0.70;99.90;;;;;;5013471;28;20517;-86
2022/02/10 04:38:10;;;;;;;28.77;17.20;;;0.70;99.90;;;;;;5013471;28;20053;-86
2022/02/10 04:54:53;;;;;;;23.38;15.05;;;0.40;99.90;;;;;;5013586;28;20056;-86
2022/02/10 04:57:29;;;;;;;28.30;15.60;;;0.30;99.90;;;;;;5013237;28;20497;-86
2022/02/10 05:03:14;;;;;;;23.35;13.23;;;0.30;99.90;;;;;;5013762;28;20046;-86
2022/02/10 05:16:43;;;;;;;24.17;13.35;;;0.20;99.90;;;;;;5013258;28;20429;-86
2022/02/10 05:35:26;;;;;;;23.92;12.90;;;0.00;99.90;;;;;;5013169;28;20060;-86
2022/02/10 05:38:08;;;;;;;21.05;12.57;;;0.00;99.90;;;;;;5011953;28;20094;-87
2022/02/10 05:43:43;;;;;;;24.42;12.73;;;0.00;99.90;;;;;;4975334;28;20542;-87
2022/02/10 05:46:46;;;;;;;22.63;12.15;;;0.00;99.90;;;;;;5011945;28;20054;-87
2022/02/10 05:49:48;;;;;;;19.35;11.63;;;-0.10;99.90;;;;;;5012959;28;20491;-86
2022/02/10 05:54:50;;;;;;;43.20;22.13;;;0.00;99.90;;;;;;5015718;28;20060;-86
2022/02/10 05:57:44;;;;;;;43.90;24.85;;;0.00;99.90;;;;;;5015757;28;20052;-87
2022/02/10 06:40:02;;;;;;;50.75;19.00;;;-0.20;99.90;;;;;;4985883;28;20046;-86
2022/02/10 06:49:43;;;;;;;73.13;30.27;;;0.00;99.90;;;;;;5015617;28;20411;-85
2022/02/10 07:03:13;;;;;;;43.15;22.33;;;0.00;99.90;;;;;;5015578;28;20409;-86
2022/02/10 07:06:00;;;;;;;48.40;21.63;;;0.10;99.90;;;;;;5013878;28;20056;-86
2022/02/10 07:08:45;;;;;;;43.75;21.17;;;0.10;99.90;;;;;;5015133;28;20050;-86
2022/02/10 07:11:26;;;;;;;32.83;18.73;;;0.20;99.90;;;;;;5015177;28;20136;-86
2022/02/10 07:14:14;;;;;;;36.42;20.38;;;0.20;99.90;;;;;;5013329;28;20053;-86
2022/02/10 07:55:20;;;;;;;51.63;27.13;;;0.90;99.90;;;;;;5034160;28;20140;-86
2022/02/10 07:58:04;;;;;;;53.22;29.15;;;1.00;99.90;;;;;;5034281;28;20417;-86
2022/02/10 08:00:41;;;;;;;45.90;25.98;;;1.20;99.90;;;;;;5033142;28;20128;-87
2022/02/10 08:49:52;;;;;;;9.50;5.55;;;6.40;99.90;;;;;;5033329;28;20517;-86
2022/02/10 08:55:10;;;;;;;6.50;4.28;;;8.00;99.90;;;;;;5033384;28;20081;-88
2022/02/10 08:58:26;;;;;;;6.72;4.47;;;8.40;99.90;;;;;;5016152;28;20379;-87
2022/02/10 09:03:31;;;;;;;8.27;4.43;;;8.60;99.90;;;;;;5033102;28;20057;-88
2022/02/10 09:06:12;;;;;;;5.53;4.25;;;8.80;99.90;;;;;;5015724;28;20481;-87
2022/02/10 09:20:08;;;;;;;6.18;3.97;;;11.50;99.90;;;;;;5032887;28;20176;-89
2022/02/10 09:55:44;;;;;;;10.02;4.50;;;9.50;99.90;;;;;;5036386;28;20164;-88
2022/02/10 09:58:28;;;;;;;8.00;4.32;;;9.20;99.90;;;;;;5019521;28;20050;-87
2022/02/10 10:01:17;;;;;;;8.25;4.13;;;8.70;99.90;;;;;;5018987;28;20391;-88
2022/02/10 10:04:06;;;;;;;7.25;5.38;;;8.50;99.90;;;;;;5019057;28;20137;-86
2022/02/10 10:07:12;;;;;;;7.00;4.53;;;8.40;99.90;;;;;;5016408;28;20053;-87
2022/02/10 10:15:33;;;;;;;5.47;4.25;;;8.40;99.90;;;;;;5035933;28;20128;-87
2022/02/10 10:21:03;;;;;;;6.28;4.30;;;8.30;99.90;;;;;;5035958;28;20048;-86
2022/02/10 10:27:11;;;;;;;13.95;4.70;;;8.20;99.90;;;;;;4955556;29;20167;-86
2022/02/10 10:57:07;;;;;;;6.45;4.28;;;7.70;99.90;;;;;;5035147;28;20087;-87
2022/02/10 11:00:04;;;;;;;12.73;4.70;;;7.60;99.90;;;;;;5017867;28;20050;-86
2022/02/10 11:39:34;;;;;;;8.65;5.00;;;7.30;99.90;;;;;;5034583;28;20068;-86
2022/02/10 11:46:35;;;;;;;7.88;4.90;;;7.40;99.90;;;;;;5034368;28;20050;-85
2022/02/10 11:59:53;;;;;;;10.02;5.63;;;7.50;99.90;;;;;;5017269;28;20042;-89
2022/02/10 12:43:41;;;;;;;25.30;6.82;;;7.80;99.90;;;;;;5033415;28;20049;-87
2022/02/10 13:34:52;;;;;;;21.95;9.32;;;7.30;99.90;;;;;;5032270;28;20140;-86
2022/02/10 13:48:48;;;;;;;16.80;9.30;;;7.30;99.90;;;;;;5032334;28;20482;-88
2022/02/10 14:13:14;;;;;;;15.02;8.65;;;7.20;99.90;;;;;;5032186;28;20045;-87
2022/02/10 14:28:22;;;;;;;15.27;9.15;;;7.20;99.90;;;;;;5035222;28;20049;-86
2022/02/10 14:30:52;;;;;;;19.42;10.25;;;7.10;99.90;;;;;;5017392;28;20050;-87
2022/02/10 14:33:29;;;;;;;20.90;9.75;;;7.10;99.90;;;;;;5017952;28;20128;-87
2022/02/10 14:36:02;;;;;;;16.70;9.85;;;7.10;99.90;;;;;;5017648;28;20087;-87
2022/02/10 15:16:59;;;;;;;371.65;178.13;;;6.60;99.90;;;;;;5034011;28;19925;-86
2022/02/10 15:36:18;;;;;;;11.98;6.78;;;6.80;99.90;;;;;;5033756;28;20098;-86
2022/02/10 15:47:38;;;;;;;9.05;6.60;;;7.00;99.90;;;;;;5033595;28;20445;-88
2022/02/10 15:49:52;;;;;;;8.20;5.25;;;7.00;99.90;;;;;;5033572;28;20518;-87
2022/02/10 15:52:58;;;;;;;6.75;5.95;;;6.90;99.90;;;;;;5033700;28;20049;-87
2022/02/10 16:12:40;;;;;;;7.90;6.20;;;7.00;99.90;;;;;;5033189;28;20045;-87
2022/02/10 16:17:33;;;;;;;9.18;6.68;;;7.00;99.90;;;;;;4999990;28;20049;-87
2022/02/10 16:20:07;;;;;;;9.13;6.50;;;7.00;99.90;;;;;;5015868;28;20124;-87
2022/02/10 16:22:47;;;;;;;9.73;7.35;;;7.00;99.90;;;;;;5015806;28;20258;-87
2022/02/10 16:25:17;;;;;;;14.20;6.95;;;6.90;99.90;;;;;;5015629;28;20494;-87
2022/02/10 16:27:50;;;;;;;11.57;7.30;;;6.90;99.90;;;;;;5032970;28;20041;-87
2022/02/10 16:30:19;;;;;;;11.80;7.70;;;7.00;99.90;;;;;;5015778;28;20050;-85
2022/02/10 16:32:51;;;;;;;11.00;7.40;;;6.90;99.90;;;;;;5016249;28;20080;-87
2022/02/10 16:35:25;;;;;;;13.70;7.25;;;7.00;99.90;;;;;;5014621;28;20078;-88
2022/02/10 16:37:51;;;;;;;11.65;7.50;;;7.00;99.90;;;;;;5032381;28;20073;-87
2022/02/10 16:40:23;;;;;;;14.35;7.38;;;7.00;99.90;;;;;;5016210;28;20095;-87
2022/02/10 16:42:55;;;;;;;14.75;8.07;;;7.00;99.90;;;;;;5016158;28;20131;-88
2022/02/10 16:45:28;;;;;;;15.27;7.03;;;7.00;99.90;;;;;;5032510;28;20092;-86
2022/02/10 16:48:00;;;;;;;11.33;7.50;;;7.00;99.90;;;;;;5016086;28;20124;-87
2022/02/10 16:50:32;;;;;;;9.68;6.72;;;7.00;99.90;;;;;;5015300;28;20444;-87
2022/02/10 16:53:08;;;;;;;10.70;7.05;;;7.00;99.90;;;;;;5015936;28;20092;-85
2022/02/10 16:59:00;;;;;;;10.20;7.28;;;7.00;99.90;;;;;;5032479;28;20077;-86
2022/02/10 17:01:32;;;;;;;8.13;5.60;;;7.00;99.90;;;;;;5031318;28;20084;-86
2022/02/10 17:18:06;;;;;;;7.63;5.72;;;7.00;99.90;;;;;;5032419;28;20100;-87
2022/02/10 17:20:43;;;;;;;9.93;5.90;;;7.00;99.90;;;;;;5015970;28;20045;-86
2022/02/10 17:26:28;;;;;;;6.05;5.43;;;7.00;99.90;;;;;;5032922;28;20418;-87
2022/02/10 17:28:54;;;;;;;6.43;4.95;;;7.00;99.90;;;;;;5022843;28;20050;-88
2022/02/10 17:32:08;;;;;;;6.38;4.82;;;7.00;99.90;;;;;;5028242;28;20049;-87
2022/02/10 17:34:26;;;;;;;5.25;4.75;;;7.00;99.90;;;;;;5029355;28;20130;-87
2022/02/10 17:53:05;;;;;;;3.30;3.00;;;7.10;99.90;;;;;;5024843;28;20046;-88
2022/02/10 17:55:32;;;;;;;4.07;2.85;;;7.10;99.90;;;;;;5024998;28;20052;-87
2022/02/10 17:57:59;;;;;;;4.07;3.42;;;7.10;99.90;;;;;;5017107;28;20045;-86
2022/02/10 18:00:26;;;;;;;5.43;4.00;;;7.10;99.90;;;;;;5015977;28;20060;-87
2022/02/10 18:02:58;;;;;;;3.35;3.15;;;7.10;99.90;;;;;;5026689;28;20045;-86
2022/02/10 18:06:04;;;;;;;3.72;2.70;;;7.10;99.90;;;;;;5026228;28;20050;-86
2022/02/10 18:08:22;;;;;;;6.05;3.17;;;7.10;99.90;;;;;;4997166;28;20390;-86
2022/02/10 18:14:23;;;;;;;3.60;3.30;;;7.10;99.90;;;;;;4996585;28;20053;-86
2022/02/10 18:16:33;;;;;;;3.42;3.20;;;7.10;99.90;;;;;;4990907;28;20053;-86
2022/02/10 18:19:09;;;;;;;3.63;3.25;;;7.10;99.90;;;;;;4995117;28;20410;-86
2022/02/10 19:08:25;;;;;;;6.85;4.68;;;7.00;99.90;;;;;;4997036;28;20046;-86
2022/02/10 19:10:58;;;;;;;4.40;4.00;;;7.10;99.90;;;;;;4994452;28;20063;-86
2022/02/10 19:13:25;;;;;;;7.75;4.10;;;7.00;99.90;;;;;;4994171;28;20042;-86
2022/02/10 19:15:54;;;;;;;4.18;3.88;;;7.00;99.90;;;;;;5010366;28;20452;-86
2022/02/10 19:18:41;;;;;;;6.35;5.05;;;7.10;99.90;;;;;;4994611;28;20062;-86
2022/02/10 19:21:08;;;;;;;5.35;4.57;;;7.10;99.90;;;;;;4995696;28;20054;-86
2022/02/10 19:23:34;;;;;;;5.30;4.28;;;7.10;99.90;;;;;;4995412;28;20049;-86
2022/02/10 19:26:01;;;;;;;7.28;4.45;;;7.10;99.90;;;;;;4994658;28;20114;-86
2022/02/10 19:28:28;;;;;;;5.72;4.15;;;7.10;99.90;;;;;;4994339;28;20055;-86
2022/02/10 19:30:56;;;;;;;5.18;4.40;;;7.10;99.90;;;;;;4994161;28;20487;-86
2022/02/10 19:33:23;;;;;;;5.07;4.65;;;7.10;99.90;;;;;;4995212;28;20054;-86
2022/02/10 19:35:52;;;;;;;5.25;4.75;;;7.10;99.90;;;;;;4993678;28;20129;-86
2022/02/10 19:38:22;;;;;;;5.82;4.75;;;7.10;99.90;;;;;;4994042;28;20076;-86
2022/02/10 19:40:54;;;;;;;5.10;4.60;;;7.10;99.90;;;;;;4993971;28;20063;-86
2022/02/10 19:43:22;;;;;;;10.15;5.43;;;7.10;99.90;;;;;;4994031;28;20153;-86
2022/02/10 19:45:49;;;;;;;5.55;4.97;;;7.10;99.90;;;;;;5009862;28;20058;-86
2022/02/10 19:48:17;;;;;;;5.70;5.15;;;7.10;99.90;;;;;;4994010;28;20050;-86
2022/02/10 19:50:44;;;;;;;5.70;5.10;;;7.00;99.90;;;;;;5009770;28;20046;-86
2022/02/10 19:53:17;;;;;;;5.80;4.85;;;7.00;99.90;;;;;;4993687;28;20093;-86
2022/02/10 19:55:48;;;;;;;6.05;5.03;;;7.00;99.90;;;;;;5009638;28;20056;-86
2022/02/10 19:58:19;;;;;;;5.80;4.85;;;7.00;99.90;;;;;;4994114;28;20129;-86
2022/02/10 20:00:47;;;;;;;5.70;4.88;;;7.00;99.90;;;;;;4992283;28;20052;-86
2022/02/10 20:03:20;;;;;;;4.97;4.03;;;7.00;99.90;;;;;;4993122;28;20056;-85
2022/02/10 20:05:50;;;;;;;4.95;4.47;;;7.00;99.90;;;;;;4994951;28;20077;-86
2022/02/10 20:08:20;;;;;;;6.22;4.20;;;7.00;99.90;;;;;;4993695;28;20078;-86
2022/02/10 20:10:53;;;;;;;4.57;3.92;;;7.00;99.90;;;;;;5009580;28;20050;-86
2022/02/10 20:13:25;;;;;;;5.47;4.20;;;6.90;99.90;;;;;;5009384;28;20056;-86
2022/02/10 20:15:53;;;;;;;4.63;4.25;;;6.90;99.90;;;;;;4993045;28;20050;-86
2022/02/10 20:18:20;;;;;;;4.57;4.13;;;6.90;99.90;;;;;;4993016;28;20396;-86
2022/02/10 20:20:54;;;;;;;4.00;3.70;;;6.80;99.90;;;;;;4993331;28;20046;-87
2022/02/10 20:23:22;;;;;;;3.92;3.53;;;6.80;99.90;;;;;;4993376;28;20056;-86
2022/02/10 20:26:09;;;;;;;4.75;4.00;;;6.80;99.90;;;;;;4993431;28;20073;-86
2022/02/10 20:28:36;;;;;;;5.30;4.05;;;6.80;99.90;;;;;;4993994;28;20133;-86
2022/02/10 20:31:03;;;;;;;4.20;3.80;;;6.80;99.90;;;;;;4993135;28;20105;-86
2022/02/10 20:33:31;;;;;;;5.07;3.72;;;6.80;99.90;;;;;;4993106;28;20046;-86
2022/02/10 20:36:01;;;;;;;4.00;3.70;;;6.70;99.90;;;;;;5009306;28;20053;-86
2022/02/10 20:38:30;;;;;;;6.38;4.15;;;6.70;99.90;;;;;;4991920;28;20112;-87
2022/02/10 20:41:10;;;;;;;4.45;4.05;;;6.70;99.90;;;;;;5008069;28;20410;-86
2022/02/10 20:43:38;;;;;;;4.72;4.25;;;6.60;99.90;;;;;;4992391;28;20097;-86
2022/02/10 20:46:08;;;;;;;4.20;3.80;;;6.60;99.90;;;;;;5008582;28;20054;-87
2022/02/10 20:48:38;;;;;;;5.03;4.03;;;6.60;99.90;;;;;;4992273;28;20072;-86
2022/02/10 20:51:12;;;;;;;5.28;4.57;;;6.60;99.90;;;;;;4992757;28;20085;-86
2022/02/10 20:53:45;;;;;;;4.45;4.05;;;6.60;99.90;;;;;;4991989;28;20057;-87
2022/02/10 20:56:14;;;;;;;4.60;4.20;;;6.60;99.90;;;;;;5008486;28;20046;-88
2022/02/10 20:58:42;;;;;;;4.35;3.95;;;6.60;99.90;;;;;;4992084;28;20298;-86
2022/02/10 21:01:12;;;;;;;4.63;4.22;;;6.60;99.90;;;;;;4991996;28;20133;-86
2022/02/10 21:03:40;;;;;;;5.10;4.60;;;6.60;99.90;;;;;;4991843;28;20122;-86
2022/02/10 21:09:01;;;;;;;5.50;4.95;;;6.60;99.90;;;;;;4993194;28;20476;-86
2022/02/10 21:11:29;;;;;;;6.15;5.55;;;6.60;99.90;;;;;;4992661;28;20097;-87
2022/02/10 21:14:01;;;;;;;6.45;5.55;;;6.60;99.90;;;;;;4992626;28;20506;-85
2022/02/10 21:16:28;;;;;;;7.28;6.57;;;6.50;99.90;;;;;;4992257;28;20046;-87
2022/02/10 21:18:55;;;;;;;7.03;6.20;;;6.50;99.90;;;;;;4993461;28;20578;-86
2022/02/10 21:21:23;;;;;;;6.30;5.70;;;6.50;99.90;;;;;;4992781;28;20129;-86
2022/02/10 21:23:55;;;;;;;8.43;6.57;;;6.40;99.90;;;;;;5008454;28;20137;-86
2022/02/10 21:26:28;;;;;;;6.00;5.40;;;6.40;99.90;;;;;;4996509;28;20052;-86
2022/02/10 21:29:00;;;;;;;7.70;6.18;;;6.30;99.90;;;;;;5012764;28;20056;-85
2022/02/10 21:31:29;;;;;;;7.05;5.60;;;6.30;99.90;;;;;;5012926;28;20070;-86
2022/02/10 21:34:12;;;;;;;8.35;6.55;;;6.30;99.90;;;;;;4997302;28;20133;-86
2022/02/10 21:39:46;;;;;;;7.25;6.15;;;6.20;99.90;;;;;;4997253;28;20058;-86
2022/02/10 21:43:27;;;;;;;6.05;5.32;;;6.30;99.90;;;;;;4997944;28;20050;-86
2022/02/10 21:48:10;;;;;;;5.72;5.22;;;6.30;99.90;;;;;;4996580;28;20058;-86
2022/02/10 21:56:37;;;;;;;6.00;5.40;;;6.40;99.90;;;;;;4996887;28;20054;-85
2022/02/10 22:19:07;;;;;;;7.68;6.57;;;6.20;99.90;;;;;;4971025;28;20078;-86
2022/02/10 22:21:45;;;;;;;8.63;6.70;;;6.10;99.90;;;;;;5012147;28;20050;-86
2022/02/10 22:24:15;;;;;;;7.50;6.15;;;6.00;99.90;;;;;;5011629;28;20047;-86
2022/02/10 22:26:43;;;;;;;8.18;7.07;;;6.00;99.90;;;;;;5011779;28;20052;-87
2022/02/10 22:29:19;;;;;;;7.10;6.43;;;5.90;99.90;;;;;;5011761;28;20050;-86
2022/02/10 22:32:13;;;;;;;7.35;5.93;;;5.90;99.90;;;;;;5011612;28;20415;-86
2022/02/10 22:34:40;;;;;;;;;;;5.90;99.90;;;;;;5011828;28;20050;-86
2022/02/10 22:37:11;;;;;;;6.53;5.80;;;5.90;99.90;;;;;;4995441;28;19928;-86
2022/02/10 22:39:43;;;;;;;6.20;5.60;;;5.90;99.90;;;;;;5011622;28;20054;-84
2022/02/10 22:42:10;;;;;;;6.80;6.10;;;5.80;99.90;;;;;;5011520;28;20525;-86
2022/02/10 22:44:38;;;;;;;6.88;6.25;;;5.80;99.90;;;;;;4996089;28;20479;-86
2022/02/10 22:47:07;;;;;;;6.15;5.55;;;5.80;99.90;;;;;;5011368;28;20060;-86
2022/02/10 22:49:34;;;;;;;5.90;5.30;;;5.80;99.90;;;;;;5011273;28;20142;-85
2022/02/10 22:52:01;;;;;;;5.85;5.25;;;5.80;99.90;;;;;;5010950;28;20061;-87
2022/02/10 22:54:28;;;;;;;6.35;5.70;;;5.90;99.90;;;;;;5010608;28;20133;-85
2022/02/10 22:56:55;;;;;;;8.23;5.57;;;5.80;99.90;;;;;;5011384;28;20058;-86
2022/02/10 22:59:22;;;;;;;5.32;4.82;;;5.90;99.90;;;;;;5011070;28;20038;-85
2022/02/10 23:01:49;;;;;;;5.47;4.97;;;5.90;99.90;;;;;;4996062;28;20603;-85
2022/02/10 23:04:16;;;;;;;5.07;4.60;;;5.90;99.90;;;;;;4995807;28;20537;-86
2022/02/10 23:06:42;;;;;;;5.10;4.60;;;5.90;99.90;;;;;;5010061;28;20054;-86
2022/02/10 23:09:26;;;;;;;5.30;4.90;;;5.80;99.90;;;;;;4995699;28;20054;-86
2022/02/10 23:11:54;;;;;;;4.97;4.53;;;5.80;99.90;;;;;;5010541;28;20054;-86
2022/02/10 23:14:24;;;;;;;5.65;4.90;;;5.80;99.90;;;;;;4995743;28;20057;-86
2022/02/10 23:16:50;;;;;;;5.13;4.63;;;5.70;99.90;;;;;;5010229;28;20137;-85
2022/02/10 23:19:17;;;;;;;6.45;5.32;;;5.70;99.90;;;;;;4998712;28;20069;-87
2022/02/10 23:21:44;;;;;;;5.00;4.60;;;5.70;99.90;;;;;;5010505;28;20088;-85
2022/02/10 23:24:10;;;;;;;5.18;4.68;;;5.70;99.90;;;;;;4995439;28;20054;-86
2022/02/10 23:26:37;;;;;;;10.35;5.10;;;5.60;99.90;;;;;;5010282;28;20056;-86
2022/02/10 23:29:05;;;;;;;4.60;4.28;;;5.60;99.90;;;;;;4995634;28;20046;-86
2022/02/10 23:31:32;;;;;;;5.35;4.85;;;5.60;99.90;;;;;;4995094;28;20538;-86
2022/02/10 23:34:02;;;;;;;4.78;4.38;;;5.60;99.90;;;;;;4994151;28;20074;-86
2022/02/10 23:36:41;;;;;;;4.88;4.30;;;5.50;99.90;;;;;;4994049;28;20530;-86
2022/02/10 23:39:18;;;;;;;4.78;4.28;;;5.60;99.90;;;;;;4994198;28;20081;-86
2022/02/10 23:41:56;;;;;;;4.32;3.92;;;5.60;99.90;;;;;;4995206;28;20050;-85
2022/02/10 23:44:28;;;;;;;5.20;3.47;;;5.50;99.90;;;;;;4993858;28;20085;-86
2022/02/10 23:46:56;;;;;;;4.38;3.60;;;5.50;99.90;;;;;;4993373;28;20050;-86
2022/02/10 23:49:24;;;;;;;4.93;3.70;;;5.40;99.90;;;;;;4994999;28;20056;-86
2022/02/10 23:51:59;;;;;;;4.93;4.43;;;5.40;99.90;;;;;;4993827;28;20590;-86
2022/02/10 23:54:28;;;;;;;4.05;3.75;;;5.40;99.90;;;;;;4993746;28;20126;-86
2022/02/10 23:57:11;;;;;;;4.28;3.97;;;5.30;99.90;;;;;;5009945;28;20080;-85
